createdAt,value
2023-04-23T00:01:05.684Z,84.39
2023-04-23T00:03:36.358Z,84.13
2023-04-23T00:06:08.094Z,84.27
2023-04-23T00:08:35.134Z,84.19
2023-04-23T00:11:01.861Z,84.16
2023-04-23T00:13:28.743Z,84.17
2023-04-23T00:15:55.699Z,84.32
2023-04-23T00:18:22.337Z,84.22
2023-04-23T00:20:49.090Z,84.10
2023-04-23T00:23:15.819Z,84.22
2023-04-23T00:25:42.438Z,84.32
2023-04-23T00:28:09.091Z,84.34
2023-04-23T00:30:35.732Z,84.34
2023-04-23T00:33:02.463Z,84.21
2023-04-23T00:35:29.158Z,84.16
2023-04-23T00:37:55.882Z,84.16
2023-04-23T00:40:23.685Z,84.05
2023-04-23T00:42:52.281Z,84.28
2023-04-23T00:45:19.021Z,84.52
2023-04-23T00:47:46.326Z,84.56
2023-04-23T00:50:13.384Z,84.52
2023-04-23T00:52:40.813Z,84.62
2023-04-23T00:55:08.588Z,84.69
2023-04-23T00:57:36.576Z,84.61
2023-04-23T01:00:05.880Z,84.68
2023-04-23T01:02:32.727Z,84.72
2023-04-23T01:05:00.549Z,84.59
2023-04-23T01:07:27.578Z,84.52
2023-04-23T01:09:54.202Z,84.50
2023-04-23T01:12:20.943Z,84.45
2023-04-23T01:14:47.592Z,84.44
2023-04-23T01:17:14.492Z,84.22
2023-04-23T01:19:41.220Z,84.27
2023-04-23T01:22:14.314Z,84.21
2023-04-23T01:24:42.836Z,83.99
2023-04-23T01:27:09.910Z,83.86
2023-04-23T01:29:36.667Z,84.04
2023-04-23T01:32:03.440Z,84.22
2023-04-23T01:34:33.682Z,84.37
2023-04-23T01:37:00.431Z,84.51
2023-04-23T01:39:27.119Z,84.53
2023-04-23T01:41:53.851Z,84.23
2023-04-23T01:44:20.631Z,84.07
2023-04-23T01:46:47.345Z,84.21
2023-04-23T01:49:14.034Z,84.18
2023-04-23T01:51:40.676Z,84.09
2023-04-23T01:54:07.415Z,84.04
2023-04-23T01:56:35.749Z,83.94
2023-04-23T01:59:02.625Z,83.87
2023-04-23T02:01:47.679Z,83.82
2023-04-23T02:04:14.957Z,83.46
2023-04-23T02:06:42.397Z,83.31
2023-04-23T02:09:09.100Z,83.55
2023-04-23T02:11:35.777Z,83.65
2023-04-23T02:14:02.561Z,83.58
2023-04-23T02:16:29.321Z,83.68
2023-04-23T02:18:56.092Z,83.77
2023-04-23T02:21:24.434Z,83.93
2023-04-23T02:23:51.282Z,83.88
2023-04-23T02:26:18.921Z,83.62
2023-04-23T02:28:46.317Z,83.76
2023-04-23T02:31:13.093Z,83.99
2023-04-23T02:33:41.388Z,84.03
2023-04-23T02:36:08.220Z,84.09
2023-04-23T02:38:34.917Z,84.15
2023-04-23T02:41:01.584Z,84.28
2023-04-23T02:43:28.236Z,84.45
2023-04-23T02:45:54.988Z,84.50
2023-04-23T02:48:22.413Z,84.39
2023-04-23T02:50:49.188Z,84.31
2023-04-23T02:53:16.411Z,84.02
2023-04-23T02:55:43.092Z,84.07
2023-04-23T02:58:10.320Z,83.99
2023-04-23T03:00:37.030Z,84.07
2023-04-23T03:03:03.843Z,84.11
2023-04-23T03:05:30.764Z,83.93
2023-04-23T03:07:57.474Z,83.86
2023-04-23T03:10:24.181Z,83.90
2023-04-23T03:12:50.944Z,83.92
2023-04-23T03:15:18.174Z,83.93
2023-04-23T03:17:44.898Z,83.85
2023-04-23T03:20:11.833Z,83.66
2023-04-23T03:22:38.575Z,83.61
2023-04-23T03:25:05.576Z,83.39
2023-04-23T03:27:32.421Z,83.23
2023-04-23T03:29:59.151Z,83.21
2023-04-23T03:32:25.764Z,82.83
2023-04-23T03:34:52.454Z,82.59
2023-04-23T03:37:19.071Z,82.62
2023-04-23T03:39:45.758Z,82.74
2023-04-23T03:42:12.424Z,82.84
2023-04-23T03:44:39.219Z,82.99
2023-04-23T03:47:05.951Z,83.10
2023-04-23T03:49:32.779Z,83.13
2023-04-23T03:51:59.488Z,83.30
2023-04-23T03:54:28.192Z,83.73
2023-04-23T03:56:54.809Z,84.00
2023-04-23T03:59:22.878Z,84.11
2023-04-23T04:01:49.501Z,84.10
2023-04-23T04:04:16.294Z,84.12
2023-04-23T04:06:43.408Z,83.95
2023-04-23T04:15:48.403Z,84.06
2023-04-23T04:18:15.182Z,84.33
2023-04-23T04:20:44.307Z,84.33
2023-04-23T04:23:11.053Z,84.33
2023-04-23T04:25:40.185Z,84.32
2023-04-23T04:28:12.016Z,84.14
2023-04-23T04:30:39.518Z,83.84
2023-04-23T04:33:06.194Z,83.66
2023-04-23T04:35:32.923Z,83.63
2023-04-23T04:38:00.061Z,83.55
2023-04-23T04:40:27.208Z,83.35
2023-04-23T04:42:55.181Z,83.42
2023-04-23T04:45:21.873Z,83.43
2023-04-23T04:47:48.569Z,83.26
2023-04-23T04:50:15.295Z,82.55
2023-04-23T04:52:41.977Z,82.13
2023-04-23T04:55:09.149Z,82.66
2023-04-23T04:57:36.639Z,83.05
2023-04-23T05:00:05.136Z,82.53
2023-04-23T05:02:31.912Z,82.33
2023-04-23T05:04:58.656Z,82.38
2023-04-23T05:07:25.292Z,82.02
2023-04-23T05:09:51.964Z,81.77
2023-04-23T05:12:18.620Z,81.77
2023-04-23T05:14:45.280Z,80.90
2023-04-23T05:17:11.946Z,81.14
2023-04-23T05:19:38.606Z,81.26
2023-04-23T05:22:05.288Z,81.50
2023-04-23T05:24:32.403Z,80.50
2023-04-23T05:26:59.047Z,79.70
2023-04-23T05:29:25.772Z,78.65
2023-04-23T05:31:52.449Z,78.28
2023-04-23T05:34:19.135Z,78.62
2023-04-23T05:36:45.838Z,77.80
2023-04-23T05:39:12.495Z,76.08
2023-04-23T05:41:39.182Z,74.44
2023-04-23T05:44:05.880Z,73.15
2023-04-23T05:46:32.569Z,72.24
2023-04-23T05:48:59.417Z,73.01
2023-04-23T05:51:26.131Z,72.73
2023-04-23T05:53:52.878Z,71.84
2023-04-23T05:56:19.593Z,72.22
2023-04-23T05:58:46.443Z,70.15
2023-04-23T06:01:13.088Z,68.50
2023-04-23T06:03:42.199Z,67.77
2023-04-23T06:06:09.057Z,67.97
2023-04-23T06:08:35.959Z,66.29
2023-04-23T06:11:02.614Z,67.44
2023-04-23T06:13:30.892Z,65.93
2023-04-23T06:15:58.162Z,65.19
2023-04-23T06:18:24.870Z,67.23
2023-04-23T06:20:51.677Z,64.14
2023-04-23T06:23:18.308Z,61.99
2023-04-23T06:25:44.975Z,61.00
2023-04-23T06:28:11.655Z,62.65
2023-04-23T06:30:38.267Z,59.56
2023-04-23T06:33:05.000Z,61.38
2023-04-23T06:35:31.723Z,59.08
2023-04-23T06:37:58.379Z,58.90
2023-04-23T06:40:25.019Z,59.37
2023-04-23T06:42:51.679Z,58.68
2023-04-23T06:45:18.323Z,59.49
2023-04-23T06:47:45.301Z,58.60
2023-04-23T06:50:12.079Z,56.51
2023-04-23T06:52:38.720Z,59.31
2023-04-23T06:55:05.798Z,56.86
2023-04-23T06:57:32.454Z,58.42
2023-04-23T06:59:59.062Z,55.83
2023-04-23T07:02:26.330Z,55.52
2023-04-23T07:04:53.067Z,56.46
2023-04-23T07:07:19.946Z,57.06
2023-04-23T07:09:46.658Z,58.66
2023-04-23T07:12:13.307Z,59.17
2023-04-23T07:14:40.159Z,58.57
2023-04-23T07:17:07.132Z,57.60
2023-04-23T07:19:33.810Z,55.72
2023-04-23T07:22:00.467Z,56.15
2023-04-23T07:24:27.311Z,58.43
2023-04-23T07:26:53.947Z,59.35
2023-04-23T07:29:20.673Z,59.43
2023-04-23T07:31:48.437Z,58.85
2023-04-23T07:34:15.128Z,58.56
2023-04-23T07:36:41.733Z,60.53
2023-04-23T07:39:08.392Z,60.87
2023-04-23T07:41:35.499Z,61.03
2023-04-23T07:44:02.178Z,61.12
2023-04-23T07:46:28.867Z,60.76
2023-04-23T07:48:55.729Z,60.60
2023-04-23T07:51:22.768Z,59.70
2023-04-23T07:53:51.289Z,60.99
2023-04-23T07:56:17.976Z,59.32
2023-04-23T07:58:44.604Z,60.09
2023-04-23T08:01:11.274Z,62.56
2023-04-23T08:03:38.175Z,62.01
2023-04-23T08:06:05.263Z,60.49
2023-04-23T08:08:31.974Z,61.38
2023-04-23T08:10:58.855Z,62.10
2023-04-23T08:13:25.481Z,62.20
2023-04-23T08:15:52.352Z,61.63
2023-04-23T08:18:19.061Z,62.66
2023-04-23T08:20:45.673Z,60.61
2023-04-23T08:23:12.403Z,61.14
2023-04-23T08:25:39.047Z,59.75
2023-04-23T08:28:05.806Z,59.71
2023-04-23T08:30:32.555Z,60.29
2023-04-23T08:32:59.325Z,60.14
2023-04-23T08:35:26.005Z,58.99
2023-04-23T08:37:52.643Z,59.17
2023-04-23T08:40:19.383Z,60.95
2023-04-23T08:43:03.683Z,60.97
2023-04-23T08:45:30.773Z,62.28
2023-04-23T08:48:01.546Z,61.37
2023-04-23T08:50:29.346Z,61.75
2023-04-23T08:52:57.243Z,62.95
2023-04-23T08:55:24.041Z,64.26
2023-04-23T08:57:51.086Z,64.12
2023-04-23T09:00:18.914Z,63.91
2023-04-23T09:02:46.924Z,64.32
2023-04-23T09:05:13.946Z,64.43
2023-04-23T09:07:41.121Z,62.36
2023-04-23T09:10:08.627Z,62.68
2023-04-23T09:12:35.701Z,62.72
2023-04-23T09:15:03.284Z,63.64
2023-04-23T09:17:30.798Z,61.78
2023-04-23T09:19:57.758Z,58.14
2023-04-23T09:22:41.789Z,57.35
2023-04-23T09:25:10.294Z,58.16
2023-04-23T09:27:37.192Z,59.27
2023-04-23T09:30:09.756Z,58.25
2023-04-23T09:32:37.306Z,57.29
2023-04-23T09:35:07.937Z,57.42
2023-04-23T09:37:35.125Z,57.18
2023-04-23T09:40:04.403Z,58.32
2023-04-23T09:42:31.294Z,58.37
2023-04-23T09:45:01.117Z,59.97
2023-04-23T09:47:27.800Z,56.87
2023-04-23T09:49:54.529Z,58.40
2023-04-23T09:52:22.770Z,55.27
2023-04-23T09:54:49.558Z,55.98
2023-04-23T09:57:16.262Z,54.06
2023-04-23T09:59:48.827Z,54.42
2023-04-23T10:02:19.106Z,52.36
2023-04-23T10:04:46.024Z,52.73
2023-04-23T10:07:20.097Z,50.24
2023-04-23T10:09:47.656Z,51.07
2023-04-23T10:14:45.122Z,50.21
2023-04-23T10:17:12.099Z,49.80
2023-04-23T10:19:41.535Z,49.14
2023-04-23T10:22:18.379Z,51.64
2023-04-23T10:24:49.159Z,49.49
2023-04-23T10:27:28.526Z,47.12
2023-04-23T10:29:59.853Z,49.56
2023-04-23T10:32:26.592Z,47.96
2023-04-23T10:34:53.503Z,48.57
2023-04-23T10:37:20.166Z,48.27
2023-04-23T10:39:51.075Z,49.31
2023-04-23T10:42:17.746Z,49.63
2023-04-23T10:44:58.122Z,49.27
2023-04-23T10:47:29.621Z,51.60
2023-04-23T10:49:56.464Z,51.97
2023-04-23T10:52:25.812Z,53.99
2023-04-23T10:55:01.927Z,52.69
2023-04-23T10:57:28.733Z,54.54
2023-04-23T10:59:56.338Z,59.10
2023-04-23T11:02:26.696Z,58.94
2023-04-23T11:04:58.367Z,63.57
2023-04-23T11:07:32.255Z,65.60
2023-04-23T11:10:14.684Z,66.06
2023-04-23T11:12:41.459Z,66.99
2023-04-23T11:15:12.690Z,68.58
2023-04-23T11:17:39.326Z,68.85
2023-04-23T11:20:10.742Z,68.70
2023-04-23T11:22:38.380Z,69.76
2023-04-23T11:25:06.654Z,72.32
2023-04-23T11:27:33.372Z,70.27
2023-04-23T11:30:00.224Z,69.23
2023-04-23T11:32:27.981Z,68.16
2023-04-23T11:34:54.673Z,67.64
2023-04-23T11:37:21.415Z,66.51
2023-04-23T11:39:49.331Z,63.74
2023-04-23T11:42:16.521Z,62.99
2023-04-23T11:44:44.558Z,61.22
2023-04-23T11:47:12.625Z,61.07
2023-04-23T11:49:40.128Z,62.78
2023-04-23T11:52:07.150Z,57.40
2023-04-23T11:54:34.394Z,56.50
2023-04-23T11:57:01.600Z,56.48
2023-04-23T11:59:28.618Z,60.22
2023-04-23T12:01:57.550Z,58.32
2023-04-23T12:04:25.895Z,57.07
2023-04-23T12:06:53.627Z,58.41
2023-04-23T12:09:23.583Z,55.30
2023-04-23T12:11:53.321Z,56.03
2023-04-23T12:14:24.085Z,54.89
2023-04-23T12:16:53.893Z,56.89
2023-04-23T12:19:30.888Z,56.38
2023-04-23T12:21:59.083Z,57.43
2023-04-23T12:24:30.884Z,56.31
2023-04-23T12:27:02.623Z,56.83
2023-04-23T12:29:30.326Z,59.15
2023-04-23T12:31:59.088Z,59.59
2023-04-23T12:34:25.869Z,60.38
2023-04-23T12:36:54.374Z,59.59
2023-04-23T12:39:24.053Z,58.43
2023-04-23T12:41:52.204Z,59.87
2023-04-23T12:44:18.815Z,60.95
2023-04-23T12:46:45.513Z,61.53
2023-04-23T12:49:12.268Z,63.20
2023-04-23T12:51:38.973Z,62.74
2023-04-23T12:54:05.704Z,63.53
2023-04-23T12:56:32.485Z,62.58
2023-04-23T12:59:01.912Z,62.72
2023-04-23T13:01:28.800Z,63.50
2023-04-23T13:03:55.668Z,65.22
2023-04-23T13:06:22.487Z,66.67
2023-04-23T13:08:50.065Z,65.82
2023-04-23T13:11:16.867Z,66.79
2023-04-23T13:13:43.477Z,65.95
2023-04-23T13:16:10.127Z,67.19
2023-04-23T13:18:36.749Z,65.81
2023-04-23T13:21:03.403Z,66.72
2023-04-23T13:23:30.041Z,67.44
2023-04-23T13:25:56.728Z,67.37
2023-04-23T13:28:23.337Z,68.21
2023-04-23T13:30:49.986Z,68.06
2023-04-23T13:33:16.681Z,67.90
2023-04-23T13:35:43.318Z,67.69
2023-04-23T13:38:10.183Z,68.51
2023-04-23T13:40:38.020Z,68.74
2023-04-23T13:43:04.691Z,67.93
2023-04-23T13:45:31.388Z,68.74
2023-04-23T13:47:58.086Z,69.86
2023-04-23T13:50:24.859Z,72.20
2023-04-23T13:52:51.478Z,73.35
2023-04-23T13:55:18.302Z,74.80
2023-04-23T13:57:44.931Z,74.98
2023-04-23T14:00:12.788Z,74.51
2023-04-23T14:02:39.565Z,73.83
2023-04-23T14:05:06.850Z,72.83
2023-04-23T14:07:33.495Z,74.38
2023-04-23T14:10:00.196Z,73.97
2023-04-23T14:12:28.871Z,73.65
2023-04-23T14:14:55.852Z,72.65
2023-04-23T14:17:22.493Z,72.63
2023-04-23T14:19:49.177Z,67.43
2023-04-23T14:22:15.820Z,67.37
2023-04-23T14:24:46.698Z,68.23
2023-04-23T14:27:13.498Z,67.59
2023-04-23T14:29:41.099Z,67.48
2023-04-23T14:32:07.995Z,69.00
2023-04-23T14:34:37.896Z,68.83
2023-04-23T14:37:05.072Z,69.20
2023-04-23T14:39:33.518Z,69.03
2023-04-23T14:42:01.204Z,69.43
2023-04-23T14:44:28.237Z,71.97
2023-04-23T14:46:55.191Z,69.60
2023-04-23T14:49:21.878Z,70.42
2023-04-23T14:51:54.285Z,71.14
2023-04-23T14:54:22.260Z,70.68
2023-04-23T14:56:50.114Z,73.26
2023-04-23T14:59:17.159Z,73.02
2023-04-23T15:01:49.482Z,71.75
2023-04-23T15:04:22.526Z,72.13
2023-04-23T15:06:49.634Z,71.81
2023-04-23T15:09:17.216Z,72.18
2023-04-23T15:11:44.023Z,71.80
2023-04-23T15:14:33.417Z,71.03
2023-04-23T15:17:00.300Z,69.70
2023-04-23T15:19:27.222Z,69.47
2023-04-23T15:21:54.032Z,71.03
2023-04-23T15:24:20.904Z,70.28
2023-04-23T15:26:48.788Z,71.01
2023-04-23T15:29:15.717Z,71.19
2023-04-23T15:31:49.173Z,70.37
2023-04-23T15:34:16.077Z,71.73
2023-04-23T15:36:42.812Z,72.15
2023-04-23T15:39:09.707Z,71.94
2023-04-23T15:41:39.526Z,72.20
2023-04-23T15:44:13.419Z,71.28
2023-04-23T15:46:40.279Z,71.70
2023-04-23T15:49:07.053Z,70.45
2023-04-23T15:51:33.757Z,70.86
2023-04-23T15:54:02.285Z,73.37
2023-04-23T15:56:28.907Z,74.62
2023-04-23T15:58:55.707Z,73.56
2023-04-23T16:01:23.682Z,73.96
2023-04-23T16:04:07.965Z,74.35
2023-04-23T16:06:36.690Z,75.06
2023-04-23T16:09:06.730Z,75.48
2023-04-23T16:11:34.514Z,75.25
2023-04-23T16:14:01.216Z,74.85
2023-04-23T16:16:28.650Z,74.89
2023-04-23T16:18:56.351Z,75.62
2023-04-23T16:21:24.542Z,73.22
2023-04-23T16:23:51.405Z,74.71
2023-04-23T16:26:18.067Z,76.06
2023-04-23T16:28:51.951Z,75.88
2023-04-23T16:31:23.334Z,75.98
2023-04-23T16:33:50.070Z,75.77
2023-04-23T16:36:17.360Z,76.55
2023-04-23T16:38:49.341Z,76.85
2023-04-23T16:41:17.729Z,77.33
2023-04-23T16:43:44.373Z,77.80
2023-04-23T16:46:11.195Z,77.97
2023-04-23T16:48:37.859Z,78.11
2023-04-23T16:51:04.545Z,78.66
2023-04-23T16:53:31.179Z,78.74
2023-04-23T16:55:58.032Z,77.83
2023-04-23T16:58:24.770Z,77.39
2023-04-23T17:00:51.491Z,78.42
2023-04-23T17:03:18.255Z,79.10
2023-04-23T17:05:45.746Z,79.28
2023-04-23T17:08:12.754Z,78.56
2023-04-23T17:10:39.631Z,77.72
2023-04-23T17:13:06.352Z,77.28
2023-04-23T17:15:32.976Z,77.67
2023-04-23T17:17:59.727Z,78.06
2023-04-23T17:20:26.523Z,77.22
2023-04-23T17:22:53.176Z,76.51
2023-04-23T17:25:19.894Z,76.49
2023-04-23T17:27:46.784Z,77.03
2023-04-23T17:30:13.717Z,77.24
2023-04-23T17:32:40.445Z,76.53
2023-04-23T17:35:10.683Z,76.28
2023-04-23T17:37:37.681Z,76.11
2023-04-23T17:40:06.000Z,75.80
2023-04-23T17:42:32.959Z,76.56
2023-04-23T17:44:59.788Z,76.24
2023-04-23T17:47:27.694Z,76.63
2023-04-23T17:49:54.676Z,76.92
2023-04-23T17:52:21.355Z,76.71
2023-04-23T17:54:48.046Z,76.58
2023-04-23T17:57:14.813Z,76.24
2023-04-23T17:59:41.781Z,76.21
2023-04-23T18:02:08.682Z,76.39
2023-04-23T18:04:36.715Z,76.53
2023-04-23T18:07:03.523Z,77.20
2023-04-23T18:09:30.279Z,78.50
2023-04-23T18:11:57.479Z,78.42
2023-04-23T18:14:24.202Z,78.35
2023-04-23T18:16:51.165Z,78.46
2023-04-23T18:19:17.862Z,78.68
2023-04-23T18:21:48.010Z,78.72
2023-04-23T18:24:15.220Z,78.98
2023-04-23T18:26:41.876Z,79.03
2023-04-23T18:29:08.567Z,79.01
2023-04-23T18:31:36.692Z,79.03
2023-04-23T18:34:03.893Z,79.10
2023-04-23T18:36:36.129Z,79.11
2023-04-23T18:39:03.823Z,79.03
2023-04-23T18:41:31.040Z,78.76
2023-04-23T18:44:00.020Z,78.59
2023-04-23T18:46:27.843Z,78.63
2023-04-23T18:49:01.072Z,79.15
2023-04-23T18:51:33.296Z,79.43
2023-04-23T18:54:01.774Z,79.75
2023-04-23T18:56:28.599Z,79.44
2023-04-23T18:58:55.486Z,79.12
2023-04-23T19:01:22.828Z,79.11
2023-04-23T19:03:49.684Z,78.99
2023-04-23T19:06:16.566Z,79.07
2023-04-23T19:08:43.187Z,78.94
2023-04-23T19:11:09.889Z,79.09
2023-04-23T19:13:36.659Z,79.35
2023-04-23T19:16:03.339Z,79.50
2023-04-23T19:18:30.035Z,79.35
2023-04-23T19:20:57.032Z,79.28
2023-04-23T19:23:23.693Z,79.44
2023-04-23T19:25:50.332Z,79.65
2023-04-23T19:28:16.967Z,79.64
2023-04-23T19:30:43.693Z,79.37
2023-04-23T19:33:10.509Z,79.37
2023-04-23T19:35:39.890Z,79.49
2023-04-23T19:38:07.047Z,79.64
2023-04-23T19:40:33.755Z,79.67
2023-04-23T19:43:00.444Z,79.90
2023-04-23T19:45:27.121Z,79.96
2023-04-23T19:47:53.879Z,79.95
2023-04-23T19:50:20.796Z,79.85
2023-04-23T19:52:47.544Z,79.91
2023-04-23T19:55:14.225Z,79.87
2023-04-23T19:57:40.899Z,79.50
2023-04-23T20:00:11.677Z,79.28
2023-04-23T20:02:38.441Z,79.80
2023-04-23T20:05:06.216Z,79.74
2023-04-23T20:07:33.061Z,79.84
2023-04-23T20:09:59.663Z,80.08
2023-04-23T20:12:26.348Z,80.11
2023-04-23T20:14:54.364Z,80.37
2023-04-23T20:17:20.985Z,80.42
2023-04-23T20:19:47.815Z,80.33
2023-04-23T20:22:14.433Z,80.49
2023-04-23T20:24:46.282Z,80.36
2023-04-23T20:27:13.230Z,80.57
2023-04-23T20:29:40.034Z,80.58
2023-04-23T20:32:06.829Z,80.32
2023-04-23T20:34:33.469Z,80.16
2023-04-23T20:37:00.261Z,80.04
2023-04-23T20:39:26.938Z,80.12
2023-04-23T20:41:54.994Z,80.12
2023-04-23T20:44:22.759Z,80.47
2023-04-23T20:46:52.901Z,80.47
2023-04-23T20:49:19.659Z,80.49
2023-04-23T20:51:48.969Z,80.43
2023-04-23T20:54:15.576Z,80.54
2023-04-23T20:56:42.534Z,80.35
2023-04-23T20:59:09.146Z,80.52
2023-04-23T21:01:35.867Z,80.68
2023-04-23T21:04:02.838Z,81.10
2023-04-23T21:06:31.309Z,81.01
2023-04-23T21:08:58.145Z,80.95
2023-04-23T21:11:25.000Z,81.00
2023-04-23T21:13:51.660Z,80.69
2023-04-23T21:16:18.402Z,80.57
2023-04-23T21:18:45.237Z,80.52
2023-04-23T21:21:11.926Z,80.70
2023-04-23T21:23:38.594Z,80.76
2023-04-23T21:26:05.398Z,81.00
2023-04-23T21:28:32.124Z,80.89
2023-04-23T21:31:01.621Z,80.95
2023-04-23T21:33:28.288Z,81.01
2023-04-23T21:35:54.951Z,81.23
2023-04-23T21:38:21.652Z,81.10
2023-04-23T21:40:48.357Z,81.02
2023-04-23T21:43:15.059Z,80.92
2023-04-23T21:45:41.749Z,80.65
2023-04-23T21:48:08.560Z,80.63
2023-04-23T21:50:36.132Z,80.64
2023-04-23T21:53:03.177Z,80.61
2023-04-23T21:55:31.559Z,80.83
2023-04-23T21:58:09.752Z,81.30
2023-04-23T22:00:44.568Z,81.67
2023-04-23T22:03:12.006Z,81.52
2023-04-23T22:05:39.993Z,81.61
2023-04-23T22:08:09.710Z,81.93
2023-04-23T22:10:42.782Z,81.74
2023-04-23T22:13:09.890Z,81.68
2023-04-23T22:15:36.933Z,81.72
2023-04-23T22:18:03.673Z,81.44
2023-04-23T22:20:30.778Z,81.53
2023-04-23T22:22:57.454Z,81.94
2023-04-23T22:25:24.138Z,82.16
2023-04-23T22:27:51.020Z,82.51
2023-04-23T22:30:17.733Z,82.85
2023-04-23T22:32:44.542Z,83.07
2023-04-23T22:35:11.515Z,83.06
2023-04-23T22:37:38.231Z,82.96
2023-04-23T22:40:05.555Z,82.58
2023-04-23T22:42:32.224Z,82.29
2023-04-23T22:44:58.861Z,82.18
2023-04-23T22:47:25.611Z,82.12
2023-04-23T22:49:52.354Z,82.41
2023-04-23T22:52:19.077Z,82.58
2023-04-23T22:54:46.545Z,82.70
2023-04-23T22:57:13.252Z,82.82
2023-04-23T22:59:40.351Z,82.96
2023-04-23T23:02:07.500Z,83.01
2023-04-23T23:04:37.828Z,82.70
2023-04-23T23:07:07.675Z,82.47
2023-04-23T23:09:34.359Z,82.01
2023-04-23T23:12:04.263Z,81.85
2023-04-23T23:14:31.759Z,81.86
2023-04-23T23:16:58.453Z,81.98
2023-04-23T23:19:26.968Z,82.26
2023-04-23T23:21:53.677Z,81.85
2023-04-23T23:24:20.504Z,81.92
2023-04-23T23:26:47.119Z,82.17
2023-04-23T23:29:13.769Z,82.29
2023-04-23T23:31:40.500Z,82.40
2023-04-23T23:34:07.230Z,82.64
2023-04-23T23:36:34.201Z,82.34
2023-04-23T23:39:00.893Z,82.49
2023-04-23T23:41:27.550Z,82.43
2023-04-23T23:43:54.301Z,82.58
2023-04-23T23:46:21.063Z,82.67
2023-04-23T23:48:47.783Z,82.92
2023-04-23T23:51:14.512Z,83.16
2023-04-23T23:53:41.165Z,83.29
2023-04-23T23:56:07.875Z,83.05
2023-04-23T23:58:34.473Z,82.54
